KBZN/BZN METAR and TAF weather

Enter ICAO airport designator
Station Type Date Time Source
KBZN METAR 2019/02/23 23:32 UTC NOAA

KBZN 232332Z 33012KT 5SM -SN BKN035 OVC043 M09/M13 A3002 RMK AO2 P0000 T10891128


Station Type Date Time Source
KBZN Decoded METAR 2019/02/23 23:32 UTC NOAA

BOZEMAN GALLATIN FIELD, MT, United States (KBZN) 45-47N 111-09W 1361M
Feb 23, 2019 - 06:32 PM EST / 2019.02.23 2332 UTC
Wind: from the NNW (330 degrees) at 14 MPH (12 KT):0
Visibility: 5 mile(s):0
Sky conditions: overcast
Weather: light snow
Precipitation last hour: A trace
Temperature: 16.0 F (-8.9 C)
Windchill: 1 F (-17 C):1
Dew Point: 9.0 F (-12.8 C)
Relative Humidity: 73%
Pressure (altimeter): 30.02 in. Hg (1016 hPa)
ob: KBZN 232332Z 33012KT 5SM -SN BKN035 OVC043 M09/M13 A3002 RMK AO2 P0000 T10891128
cycle: 23

Station Type Date Time Source
KBZN TAF 2019/02/23 18:22 UTC NOAA

TAF KBZN 231720Z 2318/2424 VRB06KT P6SM VCSH BKN060
FM232200 32010G17KT 4SM -SN BR BKN045
FM240200 29010G17KT 2SM -SN BR OVC020
FM240400 VRB04KT 1SM -SN BR OVC015 PROB30 2404/2410 3/4SM -SN BR OVC004


Example: see airport list